Time;durP1;ratioP1;P1;durP2;ratioP2;P2;SDS_P1;SDS_P2;PMS_P1;PMS_P2;Temp;Humidity;BMP_temperature;BMP_pressure;BME280_temperature;BME280_humidity;BME280_pressure;Samples;Min_cycle;Max_cycle;Signal;HPM_P1;HPM_P2
2022/12/20 00:01:55;;;;;;;10.88;7.07;;;11.50;99.90;;;11.55;88.43;101047.56;5054561;28;20141;-82
2022/12/20 00:04:24;;;;;;;8.75;7.18;;;11.50;99.90;;;11.69;88.51;101066.94;5054325;28;20045;-81
2022/12/20 00:06:52;;;;;;;8.55;7.13;;;11.50;99.90;;;11.68;88.31;101034.25;5054214;28;20039;-81
2022/12/20 00:09:24;;;;;;;9.88;7.00;;;11.50;99.90;;;11.80;88.16;101065.09;5054204;28;20075;-82
2022/12/20 00:11:52;;;;;;;10.60;7.45;;;11.60;99.90;;;11.76;88.07;101066.00;5054516;28;20483;-81
2022/12/20 00:14:20;;;;;;;10.25;6.78;;;11.60;99.90;;;11.75;88.19;101062.47;5069820;28;20497;-81
2022/12/20 00:16:49;;;;;;;11.63;7.32;;;11.60;99.90;;;11.68;88.01;101059.88;5053051;28;20483;-81
2022/12/20 00:19:17;;;;;;;9.73;7.00;;;11.60;99.90;;;11.81;88.07;101066.00;5053992;28;20045;-82
2022/12/20 00:21:46;;;;;;;9.88;6.85;;;11.60;99.90;;;11.79;88.09;101073.94;5054212;28;20044;-81
2022/12/20 00:24:14;;;;;;;11.98;7.10;;;11.60;99.90;;;11.63;88.08;101038.66;5053928;28;20052;-81
2022/12/20 00:26:50;;;;;;;10.13;6.95;;;11.60;99.90;;;11.73;88.33;101073.97;5054198;28;20544;-81
2022/12/20 00:29:19;;;;;;;13.50;7.57;;;11.60;99.90;;;11.69;88.71;101083.69;5054119;28;20052;-83
2022/12/20 00:31:47;;;;;;;9.13;7.00;;;11.60;99.90;;;11.74;88.97;101066.03;5054026;28;20072;-83
2022/12/20 00:34:16;;;;;;;9.43;7.25;;;11.60;99.90;;;11.77;89.30;101071.28;5053881;28;20082;-83
2022/12/20 00:36:44;;;;;;;13.15;7.45;;;11.60;99.90;;;11.73;90.54;101063.34;5053623;28;20578;-83
2022/12/20 00:39:12;;;;;;;7.70;6.90;;;11.60;99.90;;;11.77;90.91;101044.78;5053978;28;20393;-83
2022/12/20 00:41:41;;;;;;;9.38;7.07;;;11.60;99.90;;;11.77;91.17;101039.50;5053883;28;20068;-81
2022/12/20 00:44:11;;;;;;;10.25;7.93;;;11.60;99.90;;;11.61;91.61;101011.28;5053566;28;20040;-83
2022/12/20 00:46:39;;;;;;;11.33;7.97;;;11.60;99.90;;;11.67;92.45;101036.94;5052458;28;20084;-82
2022/12/20 00:49:10;;;;;;;8.85;7.13;;;11.50;99.90;;;11.69;93.01;101013.94;5053605;28;20071;-83
2022/12/20 00:51:38;;;;;;;9.27;7.65;;;11.50;99.90;;;11.65;93.68;101022.78;5052396;28;20402;-82
2022/12/20 00:54:06;;;;;;;10.38;7.60;;;11.50;99.90;;;11.61;94.16;101006.00;5053671;28;20068;-82
2022/12/20 00:56:35;;;;;;;10.18;7.35;;;11.50;99.90;;;11.36;94.47;100974.38;5052133;28;20103;-83
2022/12/20 00:59:03;;;;;;;10.38;7.22;;;11.40;99.90;;;11.39;95.09;101001.72;5053491;28;20041;-82
2022/12/20 01:01:34;;;;;;;9.57;7.75;;;11.40;99.90;;;11.53;95.05;101012.25;5053429;28;20510;-81
2022/12/20 01:04:03;;;;;;;10.27;7.65;;;11.30;99.90;;;10.97;94.92;100908.44;5068975;28;20136;-82
2022/12/20 01:06:32;;;;;;;9.48;7.10;;;11.40;99.90;;;11.58;95.50;101024.56;5053509;28;20106;-83
2022/12/20 01:09:01;;;;;;;12.45;7.88;;;11.40;99.90;;;11.58;95.26;101002.47;5053417;28;20049;-83
2022/12/20 01:11:32;;;;;;;12.27;7.75;;;11.50;99.90;;;11.60;95.18;100998.06;5052145;28;20094;-83
2022/12/20 01:14:03;;;;;;;11.35;7.50;;;11.50;99.90;;;11.57;95.43;101030.78;5053518;28;20065;-83
2022/12/20 01:16:38;;;;;;;11.10;7.45;;;11.50;99.90;;;11.17;95.37;100944.47;5068710;28;20552;-83
2022/12/20 01:19:12;;;;;;;8.77;7.25;;;11.50;99.90;;;11.60;95.30;101009.53;5053432;28;20143;-82
2022/12/20 01:21:43;;;;;;;11.77;7.60;;;11.40;99.90;;;11.63;95.33;101008.66;5052094;28;20395;-83
2022/12/20 01:24:12;;;;;;;10.73;7.32;;;11.50;99.90;;;11.66;95.17;101006.91;5068643;28;20048;-82
2022/12/20 01:26:41;;;;;;;10.00;7.15;;;11.50;99.90;;;11.53;95.30;100994.59;5053193;28;20045;-81
2022/12/20 01:29:10;;;;;;;12.32;7.05;;;11.50;99.90;;;11.54;95.58;101003.41;5052999;28;20075;-81
2022/12/20 01:31:40;;;;;;;9.32;7.18;;;11.40;99.90;;;11.46;96.09;100976.06;5052874;28;20120;-81
2022/12/20 01:34:11;;;;;;;12.80;7.38;;;11.40;99.90;;;11.53;96.37;100991.06;5068947;28;20045;-82
2022/12/20 01:36:39;;;;;;;14.00;7.05;;;11.40;99.90;;;11.57;96.30;100967.19;5052754;28;20065;-82
2022/12/20 01:39:12;;;;;;;8.98;6.75;;;11.50;99.90;;;11.26;96.38;100931.19;5053092;28;20044;-81
2022/12/20 01:41:42;;;;;;;9.68;7.07;;;11.50;99.90;;;11.68;96.42;100986.56;5068622;28;20548;-82
2022/12/20 01:44:57;;;;;;;8.63;7.30;;;11.50;99.90;;;11.78;96.14;100967.06;5053237;28;20065;-84
2022/12/20 01:47:32;;;;;;;9.70;7.25;;;11.60;99.90;;;11.77;96.13;100980.31;5051849;28;20197;-83
2022/12/20 01:50:05;;;;;;;8.77;7.10;;;11.60;99.90;;;11.81;96.50;100979.38;5051565;28;20437;-83
2022/12/20 01:52:39;;;;;;;8.13;7.30;;;11.70;99.90;;;11.87;95.77;100970.50;5068461;28;20072;-83
2022/12/20 01:55:16;;;;;;;13.35;6.95;;;11.70;99.90;;;11.89;96.14;100989.94;5052937;28;20126;-82
2022/12/20 01:57:50;;;;;;;10.93;6.95;;;11.70;99.90;;;11.73;96.04;100936.16;5068948;28;20067;-83
2022/12/20 02:00:20;;;;;;;10.50;6.88;;;11.80;99.90;;;11.94;96.19;100977.53;5052880;28;20049;-82
2022/12/20 02:02:50;;;;;;;11.25;6.63;;;11.80;99.90;;;11.65;96.23;100932.69;5052797;28;20037;-82
2022/12/20 02:05:22;;;;;;;12.85;8.10;;;11.80;99.90;;;11.83;96.06;100987.34;5053059;28;20079;-83
2022/12/20 02:07:54;;;;;;;9.05;6.90;;;11.80;99.90;;;11.85;96.44;101020.00;5053237;28;20045;-82
2022/12/20 02:10:29;;;;;;;12.55;7.93;;;11.70;99.90;;;11.90;96.18;101003.19;5055299;28;20131;-84
2022/12/20 02:13:05;;;;;;;11.82;7.50;;;11.80;99.90;;;11.81;96.28;100979.38;5055125;28;20136;-83
2022/12/20 02:15:45;;;;;;;10.50;7.10;;;11.70;99.90;;;11.72;96.26;100968.88;5056666;28;20041;-82
2022/12/20 02:18:23;;;;;;;11.52;7.40;;;11.70;99.90;;;11.77;96.13;100997.09;5056633;28;20040;-82
2022/12/20 02:21:18;;;;;;;13.35;7.65;;;11.60;99.90;;;11.59;96.51;100968.03;5056485;28;20457;-83
2022/12/20 02:24:39;;;;;;;12.13;7.63;;;11.60;99.90;;;11.74;96.39;100967.09;5056051;28;20383;-67
2022/12/20 02:27:38;;;;;;;8.45;7.32;;;11.60;99.90;;;11.74;96.32;100962.69;5014335;28;20088;-67
2022/12/20 02:30:15;;;;;;;10.45;7.57;;;11.60;99.90;;;11.54;96.10;100948.66;5056278;28;20455;-67
2022/12/20 02:32:52;;;;;;;11.18;8.15;;;11.60;99.90;;;11.74;95.91;100985.63;5054952;28;20045;-67
2022/12/20 02:35:25;;;;;;;8.23;6.70;;;11.60;99.90;;;11.62;95.91;100972.44;5056364;28;20056;-67
2022/12/20 02:37:58;;;;;;;10.20;7.53;;;11.60;99.90;;;11.70;96.15;100986.56;5054966;28;20045;-67
2022/12/20 02:40:33;;;;;;;10.77;7.85;;;11.60;99.90;;;11.72;95.65;101004.22;5055862;28;20519;-67
2022/12/20 02:45:14;;;;;;;14.63;7.82;;;11.60;99.90;;;11.76;95.29;100963.53;5056268;28;20372;-67
2022/12/20 02:45:57;;;;;;;11.88;7.22;;;11.60;99.90;;;11.77;95.02;100986.50;5071447;28;20049;-67
2022/12/20 02:48:30;;;;;;;9.43;7.00;;;11.60;99.90;;;11.74;94.70;100967.09;5055992;28;20049;-68
2022/12/20 02:51:00;;;;;;;10.40;7.30;;;11.60;99.90;;;11.71;94.84;100954.72;5055897;28;20096;-67
2022/12/20 02:53:28;;;;;;;9.88;7.72;;;11.60;99.90;;;11.69;94.58;100969.75;5055959;28;20095;-67
2022/12/20 02:56:02;;;;;;;11.93;7.13;;;11.60;99.90;;;11.72;94.66;100945.91;5054176;28;20055;-67
2022/12/20 02:58:37;;;;;;;8.15;6.95;;;11.60;99.90;;;11.79;94.52;100958.22;5055753;28;20578;-67
2022/12/20 03:01:17;;;;;;;10.05;7.60;;;11.60;99.90;;;11.81;94.35;100958.19;5054489;28;20449;-68
2022/12/20 03:03:47;;;;;;;8.23;7.38;;;11.70;99.90;;;11.81;94.23;100941.44;5071028;28;20055;-67
2022/12/20 03:06:15;;;;;;;10.05;7.20;;;11.70;99.90;;;11.83;94.00;100943.16;5054281;28;20056;-67
2022/12/20 03:08:43;;;;;;;9.60;7.25;;;11.70;99.90;;;11.82;93.90;100956.44;5054307;28;20053;-67
2022/12/20 03:11:12;;;;;;;9.40;6.80;;;11.70;99.90;;;11.86;93.87;100961.69;5070925;28;20491;-67
2022/12/20 03:13:40;;;;;;;7.30;6.55;;;11.70;99.90;;;11.87;93.61;100951.94;5055159;28;20045;-67
2022/12/20 03:16:11;;;;;;;8.20;6.65;;;11.70;99.90;;;11.91;93.50;100935.13;5053937;28;20048;-67
2022/12/20 03:18:39;;;;;;;10.18;6.55;;;11.70;99.90;;;11.95;93.15;100947.47;5055398;28;20037;-67
2022/12/20 03:21:08;;;;;;;8.13;7.30;;;11.80;99.90;;;11.93;92.99;100959.84;5055229;28;20037;-67
2022/12/20 03:23:36;;;;;;;11.43;6.65;;;11.80;99.90;;;11.90;93.24;100930.75;5055226;28;20128;-67
2022/12/20 03:26:06;;;;;;;10.55;7.00;;;11.70;99.90;;;11.91;93.09;100933.38;5054045;28;20048;-67
2022/12/20 03:28:40;;;;;;;10.43;7.55;;;11.80;99.90;;;11.93;93.10;100928.94;5053663;28;20049;-69
2022/12/20 03:31:11;;;;;;;10.30;7.25;;;11.80;99.90;;;12.01;92.93;100950.06;5053895;28;20048;-67
2022/12/20 03:33:47;;;;;;;8.70;6.97;;;11.80;99.90;;;11.92;93.23;100950.16;5053894;28;20055;-68
2022/12/20 03:36:16;;;;;;;9.13;7.15;;;11.80;99.90;;;11.92;93.53;100948.41;5053432;28;20048;-67
2022/12/20 03:38:45;;;;;;;11.18;7.57;;;11.80;99.90;;;11.94;93.77;100928.06;5053753;28;20168;-67
2022/12/20 03:41:13;;;;;;;11.05;7.78;;;11.80;99.90;;;12.06;93.59;100946.47;5053698;28;20045;-67
2022/12/20 03:43:42;;;;;;;8.23;6.85;;;11.80;99.90;;;12.00;93.85;100930.63;5053607;28;20033;-67
2022/12/20 03:46:12;;;;;;;10.02;7.18;;;11.90;99.90;;;11.97;93.52;100949.22;5053331;28;20045;-67
2022/12/20 03:48:40;;;;;;;8.45;6.97;;;11.80;99.90;;;11.94;93.72;100957.22;5053540;28;20050;-67
2022/12/20 03:51:10;;;;;;;7.97;6.85;;;11.80;99.90;;;12.00;93.87;100945.69;5054759;28;20053;-67
2022/12/20 03:53:39;;;;;;;11.75;7.25;;;11.80;99.90;;;11.99;94.52;100934.19;5053057;28;20053;-68
2022/12/20 03:56:08;;;;;;;8.77;6.93;;;11.80;99.90;;;11.99;94.79;100915.63;5053446;28;20052;-67
2022/12/20 03:58:37;;;;;;;8.32;6.85;;;11.80;99.90;;;11.93;95.18;100936.00;5069958;28;20053;-68
2022/12/20 04:01:20;;;;;;;9.98;7.53;;;11.80;99.90;;;11.96;95.67;100962.50;5053357;28;20510;-67
2022/12/20 04:03:49;;;;;;;8.93;7.20;;;11.80;99.90;;;10.99;95.84;100780.50;5053244;28;20502;-67
2022/12/20 04:06:19;;;;;;;8.38;7.57;;;11.80;99.90;;;11.99;95.88;100955.41;5054155;28;20445;-67
2022/12/20 04:08:48;;;;;;;12.53;7.60;;;11.80;99.90;;;11.98;96.07;100950.97;5053157;28;20059;-68
2022/12/20 04:11:23;;;;;;;9.63;8.02;;;11.80;99.90;;;11.86;97.09;100951.09;5069917;28;20283;-67
2022/12/20 04:14:11;;;;;;;9.25;8.23;;;11.70;99.90;;;11.87;97.86;100946.66;5052988;28;20048;-68
2022/12/20 04:16:41;;;;;;;10.02;7.45;;;11.70;99.90;;;11.82;98.35;100929.94;5052939;28;20051;-67
2022/12/20 04:19:10;;;;;;;;;;;11.70;99.90;;;11.83;98.78;100939.66;5053589;28;20044;-67
2022/12/20 04:21:45;;;;;;;9.05;7.35;;;11.70;99.90;;;11.84;99.22;100949.34;5053063;28;19920;-67
2022/12/20 04:24:15;;;;;;;18.25;8.27;;;11.70;99.90;;;11.61;99.83;100915.91;5054159;28;20128;-68
2022/12/20 04:26:55;;;;;;;9.88;8.10;;;11.60;99.90;;;11.80;100.00;100945.84;5053042;28;20128;-67
2022/12/20 04:29:24;;;;;;;10.75;7.78;;;11.60;99.90;;;11.85;100.00;100906.91;5069441;28;20461;-68
2022/12/20 04:31:54;;;;;;;10.70;7.80;;;11.70;99.90;;;11.86;100.00;100927.25;5053460;28;20076;-68
2022/12/20 04:34:23;;;;;;;10.25;9.15;;;11.70;99.90;;;11.83;100.00;100914.00;5052782;28;20048;-67
2022/12/20 04:36:51;;;;;;;11.48;8.00;;;11.70;99.90;;;11.75;100.00;100884.94;5052502;28;20041;-68
2022/12/20 04:39:30;;;;;;;13.32;8.73;;;11.70;99.90;;;11.77;100.00;100903.44;5052569;28;20072;-68
2022/12/20 04:42:16;;;;;;;11.18;8.55;;;11.60;99.90;;;11.65;100.00;100892.94;5052676;28;20136;-67
2022/12/20 04:44:44;;;;;;;11.55;8.57;;;11.50;99.90;;;11.53;100.00;100864.78;5053441;28;20120;-68
2022/12/20 04:47:17;;;;;;;12.48;8.57;;;11.50;99.90;;;11.74;100.00;100885.84;5052482;28;20498;-67
2022/12/20 04:49:45;;;;;;;10.10;7.87;;;11.60;99.90;;;11.34;100.00;100818.13;5052208;28;20055;-68
2022/12/20 04:55:00;;;;;;;10.95;7.95;;;11.60;99.90;;;11.75;100.00;100887.56;5069059;28;20049;-68
2022/12/20 04:57:32;;;;;;;12.48;8.23;;;11.60;99.90;;;11.74;100.00;100877.00;5052281;28;20041;-68
2022/12/20 05:00:01;;;;;;;10.63;7.60;;;11.60;99.90;;;11.72;100.00;100849.63;5052239;28;20132;-67
2022/12/20 05:02:31;;;;;;;15.20;7.95;;;11.60;99.90;;;11.61;100.00;100881.47;5053411;28;20068;-68
2022/12/20 05:05:06;;;;;;;11.23;8.10;;;11.60;99.90;;;11.83;100.00;100878.69;5052223;28;20513;-67
2022/12/20 05:07:40;;;;;;;10.85;7.50;;;11.70;99.90;;;11.72;100.00;100866.41;5068995;28;20048;-68
2022/12/20 05:10:10;;;;;;;11.00;7.80;;;11.70;99.90;;;11.88;100.00;100872.47;5052039;28;20513;-67
2022/12/20 05:12:40;;;;;;;14.18;8.40;;;11.70;99.90;;;11.82;100.00;100875.16;5068813;28;20059;-68
2022/12/20 05:15:14;;;;;;;10.13;7.40;;;11.70;99.90;;;11.86;100.00;100874.25;5068888;28;20075;-68
2022/12/20 05:17:45;;;;;;;8.80;7.85;;;11.70;99.90;;;11.83;100.00;100894.59;5068600;28;20051;-68
2022/12/20 05:20:14;;;;;;;8.60;7.20;;;11.70;99.90;;;11.87;100.00;100875.09;5051974;28;20045;-67
2022/12/20 05:28:20;;;;;;;9.38;6.95;;;11.80;99.90;;;11.99;100.00;100859.97;5068670;28;20045;-68
2022/12/20 05:30:48;;;;;;;7.90;7.10;;;11.80;99.90;;;11.92;99.81;100858.28;5051817;28;20037;-68
2022/12/20 05:33:18;;;;;;;12.25;7.25;;;11.80;99.90;;;11.96;99.56;100867.06;5051905;28;20068;-68
2022/12/20 05:35:46;;;;;;;9.27;7.20;;;11.80;99.90;;;11.95;99.19;100858.22;5053167;28;20044;-68
2022/12/20 05:38:16;;;;;;;11.73;7.30;;;11.80;99.90;;;11.92;98.79;100838.84;5051734;28;20466;-67
2022/12/20 05:40:47;;;;;;;9.10;6.97;;;11.80;99.90;;;11.71;98.15;100814.31;5068334;28;20045;-67
2022/12/20 05:43:17;;;;;;;13.70;8.27;;;11.80;99.90;;;11.98;98.02;100873.25;5068346;28;20056;-67
2022/12/20 05:45:47;;;;;;;8.03;6.87;;;11.90;99.90;;;11.75;97.54;100796.59;5055915;28;20403;-67
2022/12/20 05:48:20;;;;;;;8.20;7.20;;;11.90;99.90;;;12.05;97.09;100845.75;5055842;28;20053;-67
2022/12/20 05:50:49;;;;;;;8.80;6.50;;;11.90;99.90;;;12.04;96.49;100851.97;5056848;28;20117;-67
2022/12/20 05:53:26;;;;;;;7.90;6.70;;;11.90;99.90;;;12.06;96.20;100840.44;5055428;28;20055;-67
2022/12/20 05:56:00;;;;;;;10.45;7.38;;;11.90;99.90;;;11.99;95.80;100793.69;5056110;28;20144;-67
2022/12/20 05:58:34;;;;;;;8.68;6.70;;;12.00;99.90;;;12.22;95.32;100825.22;5055681;28;20061;-67
2022/12/20 06:01:07;;;;;;;8.15;6.63;;;12.10;99.90;;;12.01;94.97;100791.03;5055725;28;20045;-67
2022/12/20 06:03:40;;;;;;;10.73;6.97;;;12.10;99.90;;;12.26;94.38;100813.69;5072283;28;20045;-67
2022/12/20 06:06:13;;;;;;;11.40;6.57;;;12.20;99.90;;;12.37;94.09;100825.03;5072448;28;20045;-67
2022/12/20 06:08:45;;;;;;;8.05;6.63;;;12.20;99.90;;;12.36;93.73;100828.59;5055489;28;20430;-67
2022/12/20 06:11:19;;;;;;;7.47;6.18;;;12.20;99.90;;;12.41;93.35;100819.69;5055374;28;20055;-67
2022/12/20 06:14:01;;;;;;;9.20;6.28;;;12.20;99.90;;;12.46;92.86;100830.25;5055369;28;20115;-67
2022/12/20 06:16:30;;;;;;;8.48;6.30;;;12.30;99.90;;;12.44;92.70;100826.75;5055238;28;20049;-67
2022/12/20 06:19:01;;;;;;;8.27;6.03;;;12.30;99.90;;;12.53;92.24;100823.94;5055190;28;20044;-67
2022/12/20 06:21:30;;;;;;;10.20;6.72;;;12.40;99.90;;;12.53;92.13;100842.53;5055233;28;20045;-67
2022/12/20 06:24:00;;;;;;;9.80;7.15;;;12.40;99.90;;;12.48;92.07;100844.38;5054911;28;20099;-67
2022/12/20 06:26:34;;;;;;;8.15;6.13;;;12.30;99.90;;;12.50;91.62;100848.75;5055013;28;20049;-67
2022/12/20 06:29:08;;;;;;;7.53;5.80;;;12.40;99.90;;;12.55;91.38;100848.69;5054794;28;20080;-68
2022/12/20 06:31:44;;;;;;;7.70;6.93;;;12.40;99.90;;;12.57;91.41;100830.97;5055051;28;20495;-67
2022/12/20 06:34:14;;;;;;;7.63;6.53;;;12.40;99.90;;;12.42;91.01;100796.69;5055480;28;20076;-67
2022/12/20 06:36:43;;;;;;;7.90;6.18;;;12.50;99.90;;;12.56;91.50;100837.19;5071574;28;20087;-67
2022/12/20 06:39:18;;;;;;;9.00;6.13;;;12.40;99.90;;;12.61;90.80;100844.19;5056130;28;20037;-67
2022/12/20 06:41:56;;;;;;;8.85;6.55;;;12.50;99.90;;;12.59;90.75;100826.53;5071478;28;20044;-67
2022/12/20 06:44:25;;;;;;;9.35;6.82;;;12.50;99.90;;;12.54;90.79;100850.47;5054811;28;20077;-67
2022/12/20 06:46:54;;;;;;;6.95;6.20;;;12.40;99.90;;;12.55;90.70;100836.31;5071313;28;20136;-67
2022/12/20 06:49:23;;;;;;;11.75;6.30;;;12.40;99.90;;;12.53;90.79;100831.91;5054583;28;20139;-67
2022/12/20 06:51:52;;;;;;;8.70;6.13;;;12.40;99.90;;;12.55;90.78;100838.97;5053240;28;20087;-67
2022/12/20 06:54:26;;;;;;;10.13;6.05;;;12.40;99.90;;;12.59;90.67;100831.84;5053041;28;20123;-67
2022/12/20 06:56:54;;;;;;;7.40;6.63;;;12.40;99.90;;;12.63;90.30;100838.88;5070058;28;20091;-67
2022/12/20 06:59:24;;;;;;;7.63;5.60;;;12.50;99.90;;;12.64;89.98;100845.91;5069923;28;20041;-67
2022/12/20 07:01:53;;;;;;;9.20;6.15;;;12.40;99.90;;;12.49;89.92;100836.38;5053126;28;20103;-68
2022/12/20 07:04:23;;;;;;;8.25;6.00;;;12.50;99.90;;;12.56;89.93;100855.78;5054136;28;20095;-68
2022/12/20 07:06:51;;;;;;;8.93;5.85;;;12.40;99.90;;;12.57;89.73;100839.81;5053870;28;20049;-67
2022/12/20 07:09:19;;;;;;;8.68;6.38;;;12.40;99.90;;;12.55;89.89;100841.63;5053724;28;20439;-67
2022/12/20 07:11:48;;;;;;;9.02;5.95;;;12.40;99.90;;;12.61;89.67;100832.69;5053870;28;20037;-67
2022/12/20 07:14:16;;;;;;;8.30;5.88;;;12.50;99.90;;;12.58;89.38;100840.72;5054291;28;20483;-67
2022/12/20 07:16:44;;;;;;;7.03;6.03;;;12.50;99.90;;;12.56;89.83;100845.16;5053890;28;20467;-67
2022/12/20 07:19:14;;;;;;;10.50;6.70;;;12.40;99.90;;;12.55;90.36;100841.63;5054144;28;20442;-67
2022/12/20 07:21:44;;;;;;;8.85;6.13;;;12.40;99.90;;;12.54;90.92;100834.53;5054423;28;20120;-64
2022/12/20 07:24:12;;;;;;;11.90;5.85;;;12.40;99.90;;;12.47;91.40;100853.22;5053615;28;20120;-63
2022/12/20 07:26:41;;;;;;;7.53;6.05;;;12.30;99.90;;;12.41;92.04;100837.38;5054025;28;20087;-63
2022/12/20 07:29:09;;;;;;;14.02;6.90;;;12.30;99.90;;;12.33;92.53;100823.34;5053807;28;20044;-63
2022/12/20 07:31:43;;;;;;;11.45;6.53;;;12.20;99.90;;;12.37;92.96;100833.88;5054298;28;20056;-63
2022/12/20 07:34:11;;;;;;;7.60;6.85;;;12.20;99.90;;;12.31;93.27;100835.75;5053740;28;20116;-63
2022/12/20 07:36:40;;;;;;;7.22;6.30;;;12.20;99.90;;;12.23;93.47;100842.91;5053753;28;20494;-63
2022/12/20 07:39:10;;;;;;;8.10;6.45;;;12.10;99.90;;;12.20;93.44;100817.31;5053563;28;20132;-64
2022/12/20 07:41:38;;;;;;;10.98;6.90;;;12.10;99.90;;;12.28;93.79;100849.91;5053615;28;20045;-63
2022/12/20 07:44:12;;;;;;;8.32;6.78;;;12.10;99.90;;;12.21;94.18;100816.44;5052616;28;20494;-64
2022/12/20 07:46:40;;;;;;;8.43;6.70;;;12.10;99.90;;;12.16;94.48;100822.66;5069096;28;20045;-64
2022/12/20 07:49:10;;;;;;;9.00;6.30;;;12.10;99.90;;;12.13;95.13;100847.44;5053516;28;20131;-62
2022/12/20 07:51:42;;;;;;;12.75;7.00;;;12.00;99.90;;;12.17;95.72;100843.88;5015658;28;1102058;-63
2022/12/20 07:54:15;;;;;;;10.73;7.70;;;12.00;99.90;;;12.16;96.24;100843.84;5054409;28;20280;-64
2022/12/20 07:56:48;;;;;;;8.80;6.43;;;12.00;99.90;;;11.89;96.88;100826.50;5054808;28;20073;-63
2022/12/20 07:59:22;;;;;;;7.85;5.95;;;11.90;99.90;;;11.93;97.47;100845.88;5054533;28;20041;-64
2022/12/20 08:01:51;;;;;;;12.40;6.80;;;11.80;99.90;;;11.94;97.77;100863.56;5054443;28;20509;-63
2022/12/20 08:04:24;;;;;;;7.72;6.38;;;11.80;99.90;;;12.00;98.05;100850.25;5054399;28;20067;-64
2022/12/20 08:06:55;;;;;;;13.65;6.47;;;11.80;99.90;;;11.91;98.15;100856.50;5053746;28;20087;-64
2022/12/20 08:09:26;;;;;;;11.07;6.65;;;11.80;99.90;;;11.92;98.56;100850.31;5054157;28;20094;-64
2022/12/20 08:11:54;;;;;;;;;;;11.80;99.90;;;11.93;98.50;100848.53;5054807;28;20124;-64
2022/12/20 08:14:23;;;;;;;14.43;7.22;;;11.80;99.90;;;11.94;98.34;100842.34;5054024;28;20007;-66
2022/12/20 08:16:51;;;;;;;11.90;6.72;;;11.70;99.90;;;11.93;98.21;100846.78;5054527;28;20052;-62
2022/12/20 08:19:20;;;;;;;9.32;6.57;;;11.70;99.90;;;11.96;97.99;100853.81;5053992;28;20059;-63
2022/12/20 08:21:54;;;;;;;9.68;6.43;;;11.80;99.90;;;11.99;97.76;100835.22;5054246;28;20451;-64
2022/12/20 08:24:23;;;;;;;8.65;6.25;;;11.80;99.90;;;11.98;97.61;100836.97;5054308;28;20069;-67
2022/12/20 08:26:52;;;;;;;8.25;6.10;;;11.80;99.90;;;11.84;97.34;100817.72;5053955;28;20139;-67
2022/12/20 08:29:21;;;;;;;11.00;6.13;;;11.70;99.90;;;11.93;97.34;100828.22;5053972;28;20045;-68
2022/12/20 08:31:49;;;;;;;11.27;6.35;;;11.80;99.90;;;11.98;97.42;100852.03;5053682;28;20041;-67
2022/12/20 08:34:18;;;;;;;10.48;6.32;;;11.80;99.90;;;11.87;97.24;100849.47;5053538;28;20094;-68
2022/12/20 08:36:47;;;;;;;8.18;6.63;;;11.80;99.90;;;11.87;97.05;100840.63;5053630;28;20128;-66
2022/12/20 08:39:15;;;;;;;6.57;5.95;;;11.80;99.90;;;11.95;96.98;100857.34;5053523;28;20067;-66
2022/12/20 08:41:44;;;;;;;8.48;6.25;;;11.80;99.90;;;11.93;96.96;100836.16;5053425;28;20044;-63
2022/12/20 08:44:13;;;;;;;7.75;6.25;;;11.80;99.90;;;11.99;96.99;100837.88;5053372;28;20128;-65
2022/12/20 08:46:42;;;;;;;10.13;6.38;;;11.80;99.90;;;12.03;96.99;100845.78;5053442;28;20555;-63
2022/12/20 08:49:10;;;;;;;13.60;7.72;;;11.90;99.90;;;12.03;97.33;100847.53;5053341;28;20041;-64
2022/12/20 08:51:38;;;;;;;6.93;6.22;;;11.90;99.90;;;12.02;97.59;100830.75;5053939;28;20095;-65
2022/12/20 08:54:07;;;;;;;8.38;6.53;;;11.90;99.90;;;12.03;97.77;100869.66;5053331;28;20044;-63
2022/12/20 08:56:35;;;;;;;8.13;6.28;;;11.90;99.90;;;11.97;98.00;100832.59;5053226;28;20076;-62
2022/12/20 08:59:04;;;;;;;8.80;6.75;;;11.90;99.90;;;11.86;98.29;100809.75;5053602;28;20152;-64
2022/12/20 09:01:33;;;;;;;10.68;6.18;;;11.90;99.90;;;12.01;98.64;100841.38;5053582;28;20068;-64
2022/12/20 09:04:02;;;;;;;10.02;6.13;;;11.80;99.90;;;12.02;98.96;100854.63;5052973;28;20045;-64
2022/12/20 09:06:31;;;;;;;10.73;6.63;;;11.90;99.90;;;11.90;99.42;100816.78;5053408;28;20037;-63
2022/12/20 09:09:00;;;;;;;7.82;6.10;;;11.90;99.90;;;11.97;99.68;100845.84;5053058;28;20083;-64
2022/12/20 09:11:29;;;;;;;9.93;6.63;;;11.80;99.90;;;11.99;100.00;100853.78;5053277;28;20072;-65
2022/12/20 09:13:59;;;;;;;9.70;6.05;;;11.80;99.90;;;11.97;100.00;100855.56;5053041;28;20060;-64
2022/12/20 09:16:31;;;;;;;8.55;6.45;;;11.80;99.90;;;11.94;100.00;100839.72;5053111;28;20056;-64
2022/12/20 09:19:03;;;;;;;12.48;6.43;;;11.80;99.90;;;11.74;100.00;100816.06;5053027;28;20140;-65
2022/12/20 09:21:34;;;;;;;9.25;6.60;;;11.80;99.90;;;11.78;100.00;100818.66;5053046;28;20045;-66
2022/12/20 09:24:03;;;;;;;10.13;6.75;;;11.80;99.90;;;11.95;100.00;100842.34;5053108;28;20045;-64
2022/12/20 09:26:34;;;;;;;12.43;6.88;;;11.80;99.90;;;11.95;100.00;100855.59;5052877;28;20498;-65
2022/12/20 09:29:02;;;;;;;7.90;6.57;;;11.80;99.90;;;11.98;100.00;100841.44;5052884;28;20143;-64
2022/12/20 09:31:31;;;;;;;13.80;6.57;;;11.80;99.90;;;11.88;100.00;100831.81;5053081;28;20045;-65
2022/12/20 09:34:01;;;;;;;13.13;6.85;;;11.80;99.90;;;11.83;100.00;100845.09;5052764;28;20084;-66
2022/12/20 09:36:30;;;;;;;11.50;6.80;;;11.70;99.90;;;11.84;100.00;100836.28;5052830;28;20304;-64
2022/12/20 09:38:59;;;;;;;10.35;6.88;;;11.70;99.90;;;11.77;100.00;100853.09;5052752;28;20049;-64
2022/12/20 09:41:33;;;;;;;12.48;6.50;;;11.70;99.90;;;11.87;100.00;100822.97;5052974;28;20029;-63
2022/12/20 09:44:13;;;;;;;10.25;6.55;;;11.70;99.90;;;11.84;100.00;100838.91;5051829;28;20049;-65
2022/12/20 09:46:42;;;;;;;12.27;6.80;;;11.70;99.90;;;11.86;100.00;100836.25;5052943;28;20053;-66
2022/12/20 09:49:17;;;;;;;8.18;6.93;;;11.70;99.90;;;11.88;100.00;100853.00;5052660;28;20040;-64
2022/12/20 09:52:28;;;;;;;10.68;6.82;;;11.70;99.90;;;11.84;100.00;100854.81;5052850;28;20082;-65
2022/12/20 09:55:09;;;;;;;11.45;6.60;;;11.70;99.90;;;11.74;100.00;100832.84;5052938;28;20098;-65
2022/12/20 09:57:55;;;;;;;10.07;6.28;;;11.70;99.90;;;11.87;100.00;100848.59;5052709;28;20466;-64
2022/12/20 10:00:23;;;;;;;10.93;7.00;;;11.70;99.90;;;11.89;100.00;100845.03;5052587;28;20098;-64
2022/12/20 10:02:52;;;;;;;10.13;6.72;;;11.70;99.90;;;11.87;100.00;100836.22;5052760;28;20401;-65
2022/12/20 10:05:41;;;;;;;10.98;6.95;;;11.70;99.90;;;11.83;100.00;100846.91;5052811;28;20124;-65
2022/12/20 10:08:19;;;;;;;10.95;6.47;;;11.70;99.90;;;11.89;100.00;100823.84;5052595;28;20060;-65
2022/12/20 10:10:56;;;;;;;13.30;7.15;;;11.70;99.90;;;11.91;100.00;100839.72;5052458;28;20108;-64
2022/12/20 10:13:55;;;;;;;10.50;6.80;;;11.70;99.90;;;11.91;100.00;100837.94;5052483;28;20506;-64
2022/12/20 10:16:39;;;;;;;9.38;6.97;;;11.70;99.90;;;11.83;100.00;100813.28;5051472;28;20053;-64
2022/12/20 10:19:26;;;;;;;10.73;6.63;;;11.70;99.90;;;11.93;100.00;100817.63;5052710;28;20080;-64
2022/12/20 10:22:05;;;;;;;10.32;7.03;;;11.80;99.90;;;11.93;100.00;100837.94;5052492;28;20388;-65
2022/12/20 10:24:36;;;;;;;10.43;7.18;;;11.80;99.90;;;11.72;100.00;100781.63;5051372;28;20140;-64
2022/12/20 10:27:13;;;;;;;11.32;7.13;;;11.70;99.90;;;11.92;100.00;100826.47;5052692;28;20102;-63
2022/12/20 10:29:42;;;;;;;12.32;7.38;;;11.80;99.90;;;11.88;100.00;100827.41;5053146;28;20045;-64
2022/12/20 10:32:17;;;;;;;13.80;7.30;;;11.80;99.90;;;12.01;100.00;100836.09;5055914;28;20099;-64
2022/12/20 10:34:55;;;;;;;9.25;6.88;;;11.80;99.90;;;11.93;100.00;100819.38;5056289;28;20063;-64
2022/12/20 10:37:25;;;;;;;9.57;6.40;;;11.80;99.90;;;11.71;100.00;100790.44;5056286;28;20052;-65